Hauptseite
METAR-TAF:

METAR-TAF

Flughäfen :

Flughafen Sylt

Westerland, Deutschland

Breite: 54-55N, Länge: 008-21E, Höhe: 16 m

Beobachtung

Neuester Wetterbericht von vor 9 Stunden und 56 Minuten, um 19:20 UTC
Wind 17 kt aus Ost
Temperatur 17°C
Luftfeuchtigkeit 48%
Luftdruck 1025 hPa
Sichtweite 10 km oder mehr
keine Wolken unter 1500 m und keine Kumulonimbus oder Gewitterwolken

METAR: EDXW 201920Z 10017KT CAVOK 17/06 Q1025

Zeit: 07:16 (05:16 UTC)

Prognose

Neuester Wetterbericht von vor 12 Stunden und 16 Minuten, um 17:00 UTC
Gültige Prognose vom 20 um 18 UTC bis 20 um 21 UTC
Wind 13 kt aus Ost
Sichtweite 10 km oder mehr
keine Wolken unter 1500 m und keine Kumulonimbus oder Gewitterwolken

TAF: EDXW 201700Z 2018/2021 10013KT CAVOK

Wetterbeobachtungen und Prognosen von mehr als 4000 Flughäfen (METAR und TAF Bericht).

Die verfügbaren Stationen werden durch gelbe und rote Markierungen auf der Karte dargestellt.

Führen Sie die Maus auf sie, um den Namen der Station zu sehen.

Darauf klicken, um die Beobachtung von Wetterbeobachtungen und Prognosen zu sehen.

Um die Karte zu ändern : klicken Sie auf den grünen Tasten mit einem schwarzen Kreuz Zum Vergrößern, auf den grünen Button mit einem Gedankenstrich zu verkleinern, oder auf die grünen Pfeile für benachbarte Karten.


METAR-TAF: